sensor_id;sensor_type;location;lat;lon;timestamp;temperature;humidity
4501;DHT22;2263;54.654;9.410;2022-09-16T00:00:50;16.00;65.70
4501;DHT22;2263;54.654;9.410;2022-09-16T00:03:18;16.00;65.70
4501;DHT22;2263;54.654;9.410;2022-09-16T00:05:48;16.00;65.60
4501;DHT22;2263;54.654;9.410;2022-09-16T00:08:16;15.90;65.60
4501;DHT22;2263;54.654;9.410;2022-09-16T00:10:43;15.90;65.60
4501;DHT22;2263;54.654;9.410;2022-09-16T00:13:11;15.90;65.60
4501;DHT22;2263;54.654;9.410;2022-09-16T00:15:46;15.80;65.30
4501;DHT22;2263;54.654;9.410;2022-09-16T00:18:14;15.80;65.70
4501;DHT22;2263;54.654;9.410;2022-09-16T00:20:44;15.80;65.70
4501;DHT22;2263;54.654;9.410;2022-09-16T00:23:11;15.80;65.50
4501;DHT22;2263;54.654;9.410;2022-09-16T00:25:39;15.80;65.80
4501;DHT22;2263;54.654;9.410;2022-09-16T00:28:06;15.80;65.70
4501;DHT22;2263;54.654;9.410;2022-09-16T00:30:33;15.70;65.30
4501;DHT22;2263;54.654;9.410;2022-09-16T00:33:00;15.70;65.60
4501;DHT22;2263;54.654;9.410;2022-09-16T00:35:28;15.70;65.70
4501;DHT22;2263;54.654;9.410;2022-09-16T00:37:55;15.70;65.50
4501;DHT22;2263;54.654;9.410;2022-09-16T00:40:22;15.70;65.70
4501;DHT22;2263;54.654;9.410;2022-09-16T00:42:49;15.60;65.60
4501;DHT22;2263;54.654;9.410;2022-09-16T00:45:22;15.60;65.70
4501;DHT22;2263;54.654;9.410;2022-09-16T00:47:53;15.60;65.50
4501;DHT22;2263;54.654;9.410;2022-09-16T00:50:35;15.50;65.50
4501;DHT22;2263;54.654;9.410;2022-09-16T00:53:07;15.60;65.60
4501;DHT22;2263;54.654;9.410;2022-09-16T00:55:36;15.50;65.40
4501;DHT22;2263;54.654;9.410;2022-09-16T00:58:10;15.50;65.40
4501;DHT22;2263;54.654;9.410;2022-09-16T01:00:40;15.40;65.90
4501;DHT22;2263;54.654;9.410;2022-09-16T01:03:07;15.40;65.20
4501;DHT22;2263;54.654;9.410;2022-09-16T01:05:35;15.40;65.30
4501;DHT22;2263;54.654;9.410;2022-09-16T01:08:03;15.40;65.40
4501;DHT22;2263;54.654;9.410;2022-09-16T01:10:30;15.40;65.20
4501;DHT22;2263;54.654;9.410;2022-09-16T01:13:02;15.40;65.30
4501;DHT22;2263;54.654;9.410;2022-09-16T01:20:54;15.30;65.10
4501;DHT22;2263;54.654;9.410;2022-09-16T01:24:01;15.30;65.20
4501;DHT22;2263;54.654;9.410;2022-09-16T01:29:34;15.20;65.20
4501;DHT22;2263;54.654;9.410;2022-09-16T01:43:25;15.20;65.70
4501;DHT22;2263;54.654;9.410;2022-09-16T01:51:55;15.10;65.80
4501;DHT22;2263;54.654;9.410;2022-09-16T01:57:32;15.10;65.90
4501;DHT22;2263;54.654;9.410;2022-09-16T02:00:06;15.10;66.00
4501;DHT22;2263;54.654;9.410;2022-09-16T02:03:11;15.10;66.00
4501;DHT22;2263;54.654;9.410;2022-09-16T02:05:47;15.00;65.70
4501;DHT22;2263;54.654;9.410;2022-09-16T02:08:25;15.00;65.70
4501;DHT22;2263;54.654;9.410;2022-09-16T02:10:57;15.00;65.70
4501;DHT22;2263;54.654;9.410;2022-09-16T02:13:57;14.90;65.80
4501;DHT22;2263;54.654;9.410;2022-09-16T02:16:29;14.90;65.70
4501;DHT22;2263;54.654;9.410;2022-09-16T02:19:05;14.90;65.80
4501;DHT22;2263;54.654;9.410;2022-09-16T02:21:36;14.90;65.80
4501;DHT22;2263;54.654;9.410;2022-09-16T02:24:15;14.90;65.80
4501;DHT22;2263;54.654;9.410;2022-09-16T02:26:47;14.90;65.80
4501;DHT22;2263;54.654;9.410;2022-09-16T02:29:22;14.90;65.80
4501;DHT22;2263;54.654;9.410;2022-09-16T02:31:53;14.80;65.80
4501;DHT22;2263;54.654;9.410;2022-09-16T02:34:42;14.80;65.60
4501;DHT22;2263;54.654;9.410;2022-09-16T02:37:15;14.80;66.40
4501;DHT22;2263;54.654;9.410;2022-09-16T02:39:47;14.80;65.70
4501;DHT22;2263;54.654;9.410;2022-09-16T02:42:16;14.70;65.70
4501;DHT22;2263;54.654;9.410;2022-09-16T02:44:46;14.70;65.60
4501;DHT22;2263;54.654;9.410;2022-09-16T02:47:30;14.70;65.70
4501;DHT22;2263;54.654;9.410;2022-09-16T02:53:50;14.70;66.00
4501;DHT22;2263;54.654;9.410;2022-09-16T02:59:00;14.70;66.00
4501;DHT22;2263;54.654;9.410;2022-09-16T03:01:30;14.70;66.10
4501;DHT22;2263;54.654;9.410;2022-09-16T03:04:00;14.60;66.00
4501;DHT22;2263;54.654;9.410;2022-09-16T03:06:27;14.60;66.10
4501;DHT22;2263;54.654;9.410;2022-09-16T03:08:58;14.60;66.10
4501;DHT22;2263;54.654;9.410;2022-09-16T03:14:55;14.50;66.10
4501;DHT22;2263;54.654;9.410;2022-09-16T03:29:17;14.50;66.40
4501;DHT22;2263;54.654;9.410;2022-09-16T03:31:59;14.50;66.30
4501;DHT22;2263;54.654;9.410;2022-09-16T03:37:02;14.40;66.40
4501;DHT22;2263;54.654;9.410;2022-09-16T03:39:31;14.40;66.60
4501;DHT22;2263;54.654;9.410;2022-09-16T03:42:04;14.40;66.40
4501;DHT22;2263;54.654;9.410;2022-09-16T03:44:36;14.40;66.40
4501;DHT22;2263;54.654;9.410;2022-09-16T03:47:08;14.30;66.30
4501;DHT22;2263;54.654;9.410;2022-09-16T03:49:36;14.30;66.30
4501;DHT22;2263;54.654;9.410;2022-09-16T03:52:04;14.30;66.30
4501;DHT22;2263;54.654;9.410;2022-09-16T03:54:37;14.30;66.30
4501;DHT22;2263;54.654;9.410;2022-09-16T03:57:05;14.30;66.30
4501;DHT22;2263;54.654;9.410;2022-09-16T03:59:32;14.30;66.50
4501;DHT22;2263;54.654;9.410;2022-09-16T04:02:00;14.20;66.30
4501;DHT22;2263;54.654;9.410;2022-09-16T04:04:27;14.20;66.40
4501;DHT22;2263;54.654;9.410;2022-09-16T04:06:54;14.20;66.40
4501;DHT22;2263;54.654;9.410;2022-09-16T04:09:21;14.20;66.50
4501;DHT22;2263;54.654;9.410;2022-09-16T04:11:48;14.20;66.70
4501;DHT22;2263;54.654;9.410;2022-09-16T04:14:16;14.20;66.70
4501;DHT22;2263;54.654;9.410;2022-09-16T04:16:43;14.20;66.80
4501;DHT22;2263;54.654;9.410;2022-09-16T04:19:12;14.20;66.80
4501;DHT22;2263;54.654;9.410;2022-09-16T04:21:40;14.20;66.80
4501;DHT22;2263;54.654;9.410;2022-09-16T04:24:07;14.10;67.00
4501;DHT22;2263;54.654;9.410;2022-09-16T04:26:39;14.10;67.20
4501;DHT22;2263;54.654;9.410;2022-09-16T04:29:06;14.10;67.20
4501;DHT22;2263;54.654;9.410;2022-09-16T04:31:34;14.10;67.30
4501;DHT22;2263;54.654;9.410;2022-09-16T04:34:02;14.10;67.60
4501;DHT22;2263;54.654;9.410;2022-09-16T04:36:29;14.10;67.40
4501;DHT22;2263;54.654;9.410;2022-09-16T04:38:57;14.10;67.40
4501;DHT22;2263;54.654;9.410;2022-09-16T04:41:25;14.10;67.40
4501;DHT22;2263;54.654;9.410;2022-09-16T04:43:55;14.10;67.60
4501;DHT22;2263;54.654;9.410;2022-09-16T04:46:27;14.00;67.50
4501;DHT22;2263;54.654;9.410;2022-09-16T04:48:55;14.00;67.50
4501;DHT22;2263;54.654;9.410;2022-09-16T04:51:23;14.00;67.50
4501;DHT22;2263;54.654;9.410;2022-09-16T04:53:55;14.00;67.70
4501;DHT22;2263;54.654;9.410;2022-09-16T04:56:25;14.00;67.60
4501;DHT22;2263;54.654;9.410;2022-09-16T04:58:58;14.00;67.50
4501;DHT22;2263;54.654;9.410;2022-09-16T05:01:28;14.00;67.60
4501;DHT22;2263;54.654;9.410;2022-09-16T05:03:58;13.90;67.70
4501;DHT22;2263;54.654;9.410;2022-09-16T05:06:33;13.90;67.70
4501;DHT22;2263;54.654;9.410;2022-09-16T05:09:01;13.90;67.60
4501;DHT22;2263;54.654;9.410;2022-09-16T05:11:34;13.90;67.90
4501;DHT22;2263;54.654;9.410;2022-09-16T05:14:05;13.90;67.80
4501;DHT22;2263;54.654;9.410;2022-09-16T05:16:33;13.90;68.10
4501;DHT22;2263;54.654;9.410;2022-09-16T05:19:01;13.90;67.80
4501;DHT22;2263;54.654;9.410;2022-09-16T05:21:33;13.90;67.70
4501;DHT22;2263;54.654;9.410;2022-09-16T05:24:03;13.90;67.70
4501;DHT22;2263;54.654;9.410;2022-09-16T05:26:31;13.80;67.90
4501;DHT22;2263;54.654;9.410;2022-09-16T05:29:03;13.80;67.90
4501;DHT22;2263;54.654;9.410;2022-09-16T05:31:33;13.80;67.90
4501;DHT22;2263;54.654;9.410;2022-09-16T05:34:15;13.80;67.80
4501;DHT22;2263;54.654;9.410;2022-09-16T05:36:43;13.80;67.70
4501;DHT22;2263;54.654;9.410;2022-09-16T05:39:14;13.80;67.80
4501;DHT22;2263;54.654;9.410;2022-09-16T05:41:57;13.80;67.80
4501;DHT22;2263;54.654;9.410;2022-09-16T05:44:26;13.80;68.10
4501;DHT22;2263;54.654;9.410;2022-09-16T05:46:53;13.70;67.90
4501;DHT22;2263;54.654;9.410;2022-09-16T05:49:21;13.80;67.90
4501;DHT22;2263;54.654;9.410;2022-09-16T05:51:50;13.70;68.00
4501;DHT22;2263;54.654;9.410;2022-09-16T05:54:18;13.70;68.10
4501;DHT22;2263;54.654;9.410;2022-09-16T05:56:46;13.70;68.30
4501;DHT22;2263;54.654;9.410;2022-09-16T05:59:14;13.70;68.10
4501;DHT22;2263;54.654;9.410;2022-09-16T06:01:45;13.70;68.20
4501;DHT22;2263;54.654;9.410;2022-09-16T06:04:13;13.70;68.30
4501;DHT22;2263;54.654;9.410;2022-09-16T06:06:45;13.70;68.60
4501;DHT22;2263;54.654;9.410;2022-09-16T06:09:22;13.70;68.60
4501;DHT22;2263;54.654;9.410;2022-09-16T06:11:52;13.70;68.60
4501;DHT22;2263;54.654;9.410;2022-09-16T06:14:27;13.70;68.50
4501;DHT22;2263;54.654;9.410;2022-09-16T06:16:54;13.70;69.40
4501;DHT22;2263;54.654;9.410;2022-09-16T06:19:22;13.70;68.90
4501;DHT22;2263;54.654;9.410;2022-09-16T06:21:49;13.70;69.20
4501;DHT22;2263;54.654;9.410;2022-09-16T06:24:17;13.70;69.30
4501;DHT22;2263;54.654;9.410;2022-09-16T06:26:45;13.70;69.20
4501;DHT22;2263;54.654;9.410;2022-09-16T06:29:14;13.70;70.10
4501;DHT22;2263;54.654;9.410;2022-09-16T06:31:41;13.70;69.50
4501;DHT22;2263;54.654;9.410;2022-09-16T06:34:16;13.70;69.60
4501;DHT22;2263;54.654;9.410;2022-09-16T06:36:45;13.80;69.60
4501;DHT22;2263;54.654;9.410;2022-09-16T06:39:13;13.70;69.90
4501;DHT22;2263;54.654;9.410;2022-09-16T06:41:41;13.70;69.80
4501;DHT22;2263;54.654;9.410;2022-09-16T06:44:08;13.70;70.00
4501;DHT22;2263;54.654;9.410;2022-09-16T06:46:36;13.70;70.00
4501;DHT22;2263;54.654;9.410;2022-09-16T06:49:03;13.70;70.00
4501;DHT22;2263;54.654;9.410;2022-09-16T06:51:33;13.70;70.00
4501;DHT22;2263;54.654;9.410;2022-09-16T06:54:05;13.70;70.20
4501;DHT22;2263;54.654;9.410;2022-09-16T06:56:33;13.70;70.40
4501;DHT22;2263;54.654;9.410;2022-09-16T06:59:02;13.70;70.50
4501;DHT22;2263;54.654;9.410;2022-09-16T07:01:30;13.70;70.50
4501;DHT22;2263;54.654;9.410;2022-09-16T07:04:02;13.70;70.80
4501;DHT22;2263;54.654;9.410;2022-09-16T07:06:29;13.80;71.20
4501;DHT22;2263;54.654;9.410;2022-09-16T07:09:17;13.80;71.40
4501;DHT22;2263;54.654;9.410;2022-09-16T07:11:44;13.90;71.20
4501;DHT22;2263;54.654;9.410;2022-09-16T07:14:11;13.90;71.30
4501;DHT22;2263;54.654;9.410;2022-09-16T07:16:38;13.90;71.60
4501;DHT22;2263;54.654;9.410;2022-09-16T07:19:06;13.90;71.80
4501;DHT22;2263;54.654;9.410;2022-09-16T07:21:33;13.90;72.30
4501;DHT22;2263;54.654;9.410;2022-09-16T07:24:01;13.90;71.60
4501;DHT22;2263;54.654;9.410;2022-09-16T07:26:31;14.00;72.40
4501;DHT22;2263;54.654;9.410;2022-09-16T07:29:00;14.00;72.30
4501;DHT22;2263;54.654;9.410;2022-09-16T07:31:31;14.00;72.50
4501;DHT22;2263;54.654;9.410;2022-09-16T07:33:59;14.00;72.40
4501;DHT22;2263;54.654;9.410;2022-09-16T07:36:41;14.00;73.00
4501;DHT22;2263;54.654;9.410;2022-09-16T07:39:09;14.00;72.40
4501;DHT22;2263;54.654;9.410;2022-09-16T07:41:40;14.00;72.40
4501;DHT22;2263;54.654;9.410;2022-09-16T07:44:10;14.00;72.60
4501;DHT22;2263;54.654;9.410;2022-09-16T07:46:38;14.00;72.40
4501;DHT22;2263;54.654;9.410;2022-09-16T07:49:07;13.90;72.50
4501;DHT22;2263;54.654;9.410;2022-09-16T07:51:35;13.90;72.30
4501;DHT22;2263;54.654;9.410;2022-09-16T07:54:05;13.90;72.30
4501;DHT22;2263;54.654;9.410;2022-09-16T07:56:35;13.90;72.40
4501;DHT22;2263;54.654;9.410;2022-09-16T07:59:04;13.90;72.50
4501;DHT22;2263;54.654;9.410;2022-09-16T08:01:33;13.90;72.50
4501;DHT22;2263;54.654;9.410;2022-09-16T08:04:00;13.90;72.60
4501;DHT22;2263;54.654;9.410;2022-09-16T08:06:29;13.90;72.70
4501;DHT22;2263;54.654;9.410;2022-09-16T08:08:58;14.00;72.90
4501;DHT22;2263;54.654;9.410;2022-09-16T08:11:46;14.00;72.70
4501;DHT22;2263;54.654;9.410;2022-09-16T08:14:13;13.90;72.60
4501;DHT22;2263;54.654;9.410;2022-09-16T08:16:40;13.90;72.60
4501;DHT22;2263;54.654;9.410;2022-09-16T08:19:08;13.90;72.70
4501;DHT22;2263;54.654;9.410;2022-09-16T08:21:35;13.90;72.70
4501;DHT22;2263;54.654;9.410;2022-09-16T08:24:03;13.90;72.50
4501;DHT22;2263;54.654;9.410;2022-09-16T08:26:30;13.90;72.80
4501;DHT22;2263;54.654;9.410;2022-09-16T08:28:58;13.90;72.80
4501;DHT22;2263;54.654;9.410;2022-09-16T08:31:40;13.90;72.80
4501;DHT22;2263;54.654;9.410;2022-09-16T08:34:08;13.90;72.90
4501;DHT22;2263;54.654;9.410;2022-09-16T08:36:35;13.90;73.00
4501;DHT22;2263;54.654;9.410;2022-09-16T08:39:02;13.90;73.10
4501;DHT22;2263;54.654;9.410;2022-09-16T08:47:16;13.90;73.30
4501;DHT22;2263;54.654;9.410;2022-09-16T08:49:48;14.00;73.60
4501;DHT22;2263;54.654;9.410;2022-09-16T08:52:32;14.00;73.80
4501;DHT22;2263;54.654;9.410;2022-09-16T08:57:34;14.10;73.50
4501;DHT22;2263;54.654;9.410;2022-09-16T09:00:16;14.20;73.60
4501;DHT22;2263;54.654;9.410;2022-09-16T09:05:44;14.30;73.80
4501;DHT22;2263;54.654;9.410;2022-09-16T09:11:37;14.30;73.90
4501;DHT22;2263;54.654;9.410;2022-09-16T09:45:18;14.40;74.50
4501;DHT22;2263;54.654;9.410;2022-09-16T09:47:52;14.40;75.20
4501;DHT22;2263;54.654;9.410;2022-09-16T11:55:22;15.50;76.30
4501;DHT22;2263;54.654;9.410;2022-09-16T11:57:58;15.50;76.00
4501;DHT22;2263;54.654;9.410;2022-09-16T12:00:28;15.50;76.10
4501;DHT22;2263;54.654;9.410;2022-09-16T12:05:55;15.50;76.80
4501;DHT22;2263;54.654;9.410;2022-09-16T12:13:46;15.40;77.10
4501;DHT22;2263;54.654;9.410;2022-09-16T12:16:17;15.30;77.30
4501;DHT22;2263;54.654;9.410;2022-09-16T12:18:56;15.30;77.10
4501;DHT22;2263;54.654;9.410;2022-09-16T12:21:39;15.30;77.10
4501;DHT22;2263;54.654;9.410;2022-09-16T12:27:11;15.30;77.50
4501;DHT22;2263;54.654;9.410;2022-09-16T12:35:16;15.30;77.40
4501;DHT22;2263;54.654;9.410;2022-09-16T12:37:47;15.30;77.80
4501;DHT22;2263;54.654;9.410;2022-09-16T12:40:21;15.40;77.80
4501;DHT22;2263;54.654;9.410;2022-09-16T12:43:05;15.30;77.50
4501;DHT22;2263;54.654;9.410;2022-09-16T12:46:00;15.40;77.70
4501;DHT22;2263;54.654;9.410;2022-09-16T12:54:39;15.60;76.50
4501;DHT22;2263;54.654;9.410;2022-09-16T12:57:45;15.60;76.20
4501;DHT22;2263;54.654;9.410;2022-09-16T13:03:18;15.70;76.40
4501;DHT22;2263;54.654;9.410;2022-09-16T13:05:48;15.70;76.00
4501;DHT22;2263;54.654;9.410;2022-09-16T13:11:02;15.80;76.20
4501;DHT22;2263;54.654;9.410;2022-09-16T13:13:55;15.90;76.20
4501;DHT22;2263;54.654;9.410;2022-09-16T13:16:34;15.90;76.10
4501;DHT22;2263;54.654;9.410;2022-09-16T13:21:42;15.90;76.10
4501;DHT22;2263;54.654;9.410;2022-09-16T13:24:35;15.90;76.10
4501;DHT22;2263;54.654;9.410;2022-09-16T13:27:29;16.00;76.00
4501;DHT22;2263;54.654;9.410;2022-09-16T13:37:46;16.20;76.00
4501;DHT22;2263;54.654;9.410;2022-09-16T13:40:28;16.10;75.90
4501;DHT22;2263;54.654;9.410;2022-09-16T13:45:39;16.20;75.90
4501;DHT22;2263;54.654;9.410;2022-09-16T13:48:19;16.20;75.90
4501;DHT22;2263;54.654;9.410;2022-09-16T13:50:57;16.20;75.70
4501;DHT22;2263;54.654;9.410;2022-09-16T13:53:31;16.20;75.60
4501;DHT22;2263;54.654;9.410;2022-09-16T14:01:38;16.30;75.70
4501;DHT22;2263;54.654;9.410;2022-09-16T14:15:36;16.30;75.20
4501;DHT22;2263;54.654;9.410;2022-09-16T14:18:05;16.40;75.30
4501;DHT22;2263;54.654;9.410;2022-09-16T14:20:33;16.40;75.20
4501;DHT22;2263;54.654;9.410;2022-09-16T14:23:14;16.40;75.20
4501;DHT22;2263;54.654;9.410;2022-09-16T14:25:42;16.40;75.20
4501;DHT22;2263;54.654;9.410;2022-09-16T14:28:17;16.40;75.10
4501;DHT22;2263;54.654;9.410;2022-09-16T14:35:53;16.40;75.00
4501;DHT22;2263;54.654;9.410;2022-09-16T14:41:28;16.40;75.30
4501;DHT22;2263;54.654;9.410;2022-09-16T14:44:08;16.40;75.80
4501;DHT22;2263;54.654;9.410;2022-09-16T14:49:36;16.40;76.00
4501;DHT22;2263;54.654;9.410;2022-09-16T14:52:17;16.40;75.70
4501;DHT22;2263;54.654;9.410;2022-09-16T14:54:46;16.40;75.60
4501;DHT22;2263;54.654;9.410;2022-09-16T14:57:19;16.40;75.60
4501;DHT22;2263;54.654;9.410;2022-09-16T14:59:54;16.40;75.50
4501;DHT22;2263;54.654;9.410;2022-09-16T15:02:32;16.40;75.40
4501;DHT22;2263;54.654;9.410;2022-09-16T15:05:22;16.40;75.50
4501;DHT22;2263;54.654;9.410;2022-09-16T15:07:52;16.40;75.50
4501;DHT22;2263;54.654;9.410;2022-09-16T15:10:39;16.40;75.40
4501;DHT22;2263;54.654;9.410;2022-09-16T15:13:25;16.40;75.30
4501;DHT22;2263;54.654;9.410;2022-09-16T15:15:57;16.40;75.60
4501;DHT22;2263;54.654;9.410;2022-09-16T15:18:33;16.40;75.70
4501;DHT22;2263;54.654;9.410;2022-09-16T15:21:09;16.40;75.90
4501;DHT22;2263;54.654;9.410;2022-09-16T15:23:39;16.40;76.10
4501;DHT22;2263;54.654;9.410;2022-09-16T15:26:17;16.40;76.10
4501;DHT22;2263;54.654;9.410;2022-09-16T15:33:54;16.30;76.10
4501;DHT22;2263;54.654;9.410;2022-09-16T15:36:38;16.40;76.00
4501;DHT22;2263;54.654;9.410;2022-09-16T15:44:34;16.40;75.80
4501;DHT22;2263;54.654;9.410;2022-09-16T15:47:03;16.30;75.80
4501;DHT22;2263;54.654;9.410;2022-09-16T15:49:36;16.30;75.80
4501;DHT22;2263;54.654;9.410;2022-09-16T15:52:08;16.30;75.70
4501;DHT22;2263;54.654;9.410;2022-09-16T15:54:52;16.30;75.80
4501;DHT22;2263;54.654;9.410;2022-09-16T15:57:30;16.30;75.80
4501;DHT22;2263;54.654;9.410;2022-09-16T16:00:05;16.30;75.70
4501;DHT22;2263;54.654;9.410;2022-09-16T16:03:00;16.30;75.70
4501;DHT22;2263;54.654;9.410;2022-09-16T16:05:31;16.30;75.80
4501;DHT22;2263;54.654;9.410;2022-09-16T16:08:00;16.30;75.80
4501;DHT22;2263;54.654;9.410;2022-09-16T16:10:34;16.30;75.80
4501;DHT22;2263;54.654;9.410;2022-09-16T16:13:02;16.30;75.90
4501;DHT22;2263;54.654;9.410;2022-09-16T16:15:34;16.30;76.10
4501;DHT22;2263;54.654;9.410;2022-09-16T16:18:06;16.30;75.90
4501;DHT22;2263;54.654;9.410;2022-09-16T16:20:36;16.30;76.00
4501;DHT22;2263;54.654;9.410;2022-09-16T16:23:03;16.30;75.70
4501;DHT22;2263;54.654;9.410;2022-09-16T16:25:32;16.30;75.70
4501;DHT22;2263;54.654;9.410;2022-09-16T16:28:00;16.30;75.30
4501;DHT22;2263;54.654;9.410;2022-09-16T16:30:27;16.10;75.60
4501;DHT22;2263;54.654;9.410;2022-09-16T16:32:54;16.20;76.20
4501;DHT22;2263;54.654;9.410;2022-09-16T16:35:21;16.20;76.00
4501;DHT22;2263;54.654;9.410;2022-09-16T16:37:48;16.10;76.00
4501;DHT22;2263;54.654;9.410;2022-09-16T16:40:15;16.10;75.90
4501;DHT22;2263;54.654;9.410;2022-09-16T16:42:43;16.20;76.00
4501;DHT22;2263;54.654;9.410;2022-09-16T16:45:13;16.20;75.80
4501;DHT22;2263;54.654;9.410;2022-09-16T16:47:41;16.20;76.00
4501;DHT22;2263;54.654;9.410;2022-09-16T16:50:09;16.20;76.10
4501;DHT22;2263;54.654;9.410;2022-09-16T16:52:37;16.20;75.80
4501;DHT22;2263;54.654;9.410;2022-09-16T16:55:04;16.20;75.80
4501;DHT22;2263;54.654;9.410;2022-09-16T16:57:32;16.20;75.90
4501;DHT22;2263;54.654;9.410;2022-09-16T17:00:00;16.20;75.90
4501;DHT22;2263;54.654;9.410;2022-09-16T17:02:27;16.20;76.00
4501;DHT22;2263;54.654;9.410;2022-09-16T17:04:54;16.20;76.00
4501;DHT22;2263;54.654;9.410;2022-09-16T17:07:21;16.20;76.10
4501;DHT22;2263;54.654;9.410;2022-09-16T17:09:54;16.20;76.10
4501;DHT22;2263;54.654;9.410;2022-09-16T17:12:22;16.20;76.10
4501;DHT22;2263;54.654;9.410;2022-09-16T17:14:49;16.20;76.10
4501;DHT22;2263;54.654;9.410;2022-09-16T17:17:17;16.20;76.20
4501;DHT22;2263;54.654;9.410;2022-09-16T17:19:44;16.20;76.10
4501;DHT22;2263;54.654;9.410;2022-09-16T17:22:11;16.20;76.10
4501;DHT22;2263;54.654;9.410;2022-09-16T17:24:38;16.20;76.30
4501;DHT22;2263;54.654;9.410;2022-09-16T17:27:05;16.20;77.00
4501;DHT22;2263;54.654;9.410;2022-09-16T17:29:32;16.20;76.30
4501;DHT22;2263;54.654;9.410;2022-09-16T17:31:59;16.20;76.30
4501;DHT22;2263;54.654;9.410;2022-09-16T17:34:29;16.20;76.30
4501;DHT22;2263;54.654;9.410;2022-09-16T17:36:57;16.20;76.40
4501;DHT22;2263;54.654;9.410;2022-09-16T17:39:24;16.20;76.50
4501;DHT22;2263;54.654;9.410;2022-09-16T17:41:52;16.10;76.30
4501;DHT22;2263;54.654;9.410;2022-09-16T17:44:20;16.20;76.50
4501;DHT22;2263;54.654;9.410;2022-09-16T17:46:47;16.20;76.50
4501;DHT22;2263;54.654;9.410;2022-09-16T17:49:17;16.10;76.50
4501;DHT22;2263;54.654;9.410;2022-09-16T17:51:46;16.10;76.40
4501;DHT22;2263;54.654;9.410;2022-09-16T17:54:14;16.10;76.50
4501;DHT22;2263;54.654;9.410;2022-09-16T17:56:41;16.10;76.40
4501;DHT22;2263;54.654;9.410;2022-09-16T17:59:10;16.10;76.30
4501;DHT22;2263;54.654;9.410;2022-09-16T18:01:38;16.10;76.40
4501;DHT22;2263;54.654;9.410;2022-09-16T18:04:06;16.10;76.40
4501;DHT22;2263;54.654;9.410;2022-09-16T18:06:42;16.10;76.30
4501;DHT22;2263;54.654;9.410;2022-09-16T18:09:10;16.10;76.30
4501;DHT22;2263;54.654;9.410;2022-09-16T18:11:38;16.10;76.30
4501;DHT22;2263;54.654;9.410;2022-09-16T18:14:07;16.10;76.30
4501;DHT22;2263;54.654;9.410;2022-09-16T18:16:36;16.00;76.30
4501;DHT22;2263;54.654;9.410;2022-09-16T18:19:03;16.10;76.20
4501;DHT22;2263;54.654;9.410;2022-09-16T18:21:31;16.00;76.20
4501;DHT22;2263;54.654;9.410;2022-09-16T18:24:01;16.00;76.30
4501;DHT22;2263;54.654;9.410;2022-09-16T18:26:30;16.00;76.20
4501;DHT22;2263;54.654;9.410;2022-09-16T18:29:00;16.00;76.10
4501;DHT22;2263;54.654;9.410;2022-09-16T18:31:38;16.00;76.20
4501;DHT22;2263;54.654;9.410;2022-09-16T18:34:06;16.00;76.30
4501;DHT22;2263;54.654;9.410;2022-09-16T18:36:33;16.00;76.10
4501;DHT22;2263;54.654;9.410;2022-09-16T18:39:03;16.00;76.10
4501;DHT22;2263;54.654;9.410;2022-09-16T18:41:36;16.00;76.10
4501;DHT22;2263;54.654;9.410;2022-09-16T18:44:06;16.00;76.10
4501;DHT22;2263;54.654;9.410;2022-09-16T18:46:35;16.00;76.00
4501;DHT22;2263;54.654;9.410;2022-09-16T18:49:03;16.00;76.20
4501;DHT22;2263;54.654;9.410;2022-09-16T18:51:36;16.00;76.10
4501;DHT22;2263;54.654;9.410;2022-09-16T18:54:12;15.90;76.10
4501;DHT22;2263;54.654;9.410;2022-09-16T18:56:40;15.90;76.10
4501;DHT22;2263;54.654;9.410;2022-09-16T18:59:15;15.90;75.90
4501;DHT22;2263;54.654;9.410;2022-09-16T19:01:51;15.90;76.00
4501;DHT22;2263;54.654;9.410;2022-09-16T19:04:22;15.90;76.00
4501;DHT22;2263;54.654;9.410;2022-09-16T19:06:52;15.90;76.00
4501;DHT22;2263;54.654;9.410;2022-09-16T19:09:22;15.90;75.90
4501;DHT22;2263;54.654;9.410;2022-09-16T19:11:51;15.90;76.00
4501;DHT22;2263;54.654;9.410;2022-09-16T19:14:20;15.80;75.80
4501;DHT22;2263;54.654;9.410;2022-09-16T19:16:50;15.90;76.00
4501;DHT22;2263;54.654;9.410;2022-09-16T19:19:18;15.90;75.90
4501;DHT22;2263;54.654;9.410;2022-09-16T19:21:46;15.90;75.80
4501;DHT22;2263;54.654;9.410;2022-09-16T19:24:15;15.80;75.80
4501;DHT22;2263;54.654;9.410;2022-09-16T19:26:44;15.80;75.70
4501;DHT22;2263;54.654;9.410;2022-09-16T19:29:13;15.80;75.70
4501;DHT22;2263;54.654;9.410;2022-09-16T19:31:42;15.80;75.80
4501;DHT22;2263;54.654;9.410;2022-09-16T19:34:10;15.80;76.40
4501;DHT22;2263;54.654;9.410;2022-09-16T19:36:38;15.80;75.70
4501;DHT22;2263;54.654;9.410;2022-09-16T19:39:06;15.80;75.70
4501;DHT22;2263;54.654;9.410;2022-09-16T19:41:36;15.80;75.70
4501;DHT22;2263;54.654;9.410;2022-09-16T19:44:06;15.80;75.60
4501;DHT22;2263;54.654;9.410;2022-09-16T19:46:36;15.70;75.50
4501;DHT22;2263;54.654;9.410;2022-09-16T19:49:04;15.70;75.30
4501;DHT22;2263;54.654;9.410;2022-09-16T19:51:32;15.70;75.50
4501;DHT22;2263;54.654;9.410;2022-09-16T19:53:59;15.70;75.50
4501;DHT22;2263;54.654;9.410;2022-09-16T19:56:32;15.70;75.40
4501;DHT22;2263;54.654;9.410;2022-09-16T19:58:59;15.70;75.40
4501;DHT22;2263;54.654;9.410;2022-09-16T20:01:31;15.70;75.30
4501;DHT22;2263;54.654;9.410;2022-09-16T20:04:00;15.70;75.60
4501;DHT22;2263;54.654;9.410;2022-09-16T20:06:32;15.70;75.50
4501;DHT22;2263;54.654;9.410;2022-09-16T20:09:02;15.60;75.30
4501;DHT22;2263;54.654;9.410;2022-09-16T20:11:33;15.60;75.30
4501;DHT22;2263;54.654;9.410;2022-09-16T20:14:03;15.60;75.20
4501;DHT22;2263;54.654;9.410;2022-09-16T20:16:36;15.60;75.20
4501;DHT22;2263;54.654;9.410;2022-09-16T20:19:10;15.60;75.30
4501;DHT22;2263;54.654;9.410;2022-09-16T20:21:38;15.60;75.20
4501;DHT22;2263;54.654;9.410;2022-09-16T20:24:07;15.60;75.10
4501;DHT22;2263;54.654;9.410;2022-09-16T20:26:36;15.60;75.10
4501;DHT22;2263;54.654;9.410;2022-09-16T20:29:03;15.50;75.10
4501;DHT22;2263;54.654;9.410;2022-09-16T20:31:34;15.50;75.10
4501;DHT22;2263;54.654;9.410;2022-09-16T20:34:02;15.50;75.10
4501;DHT22;2263;54.654;9.410;2022-09-16T20:36:31;15.50;75.00
4501;DHT22;2263;54.654;9.410;2022-09-16T20:39:01;15.50;75.10
4501;DHT22;2263;54.654;9.410;2022-09-16T20:41:30;15.50;75.00
4501;DHT22;2263;54.654;9.410;2022-09-16T20:43:58;15.50;75.10
4501;DHT22;2263;54.654;9.410;2022-09-16T20:46:31;15.50;75.10
4501;DHT22;2263;54.654;9.410;2022-09-16T20:49:01;15.50;75.00
4501;DHT22;2263;54.654;9.410;2022-09-16T20:51:30;15.50;75.20
4501;DHT22;2263;54.654;9.410;2022-09-16T20:54:05;15.40;75.00
4501;DHT22;2263;54.654;9.410;2022-09-16T20:56:37;15.40;75.10
4501;DHT22;2263;54.654;9.410;2022-09-16T20:59:09;15.40;75.00
4501;DHT22;2263;54.654;9.410;2022-09-16T21:01:38;15.40;74.90
4501;DHT22;2263;54.654;9.410;2022-09-16T21:04:10;15.40;75.00
4501;DHT22;2263;54.654;9.410;2022-09-16T21:06:38;15.40;75.00
4501;DHT22;2263;54.654;9.410;2022-09-16T21:09:08;15.40;75.00
4501;DHT22;2263;54.654;9.410;2022-09-16T21:11:36;15.40;75.20
4501;DHT22;2263;54.654;9.410;2022-09-16T21:14:12;15.40;75.00
4501;DHT22;2263;54.654;9.410;2022-09-16T21:16:42;15.40;75.00
4501;DHT22;2263;54.654;9.410;2022-09-16T21:19:10;15.30;74.90
4501;DHT22;2263;54.654;9.410;2022-09-16T21:21:40;15.30;74.90
4501;DHT22;2263;54.654;9.410;2022-09-16T21:24:09;15.30;74.80
4501;DHT22;2263;54.654;9.410;2022-09-16T21:26:37;15.30;74.80
4501;DHT22;2263;54.654;9.410;2022-09-16T21:29:10;15.30;75.00
4501;DHT22;2263;54.654;9.410;2022-09-16T21:31:40;15.30;74.90